Terminal Aerodrome Forecast
Issued by NWS Cleveland, OH

Home | Current Version | Previous Version | Graphics & Text | Print | Product List | Glossary On
Versions: 1 2 3 4 5 6 7 8 9 10 11 12 13 14 15 16 17 18 19 20 21 22
000
FTUS41 KCLE 271500 AAA
TAFTOL
TAF AMD
KTOL 271517Z 2715/2812 21012G18KT 6SM -SHRA SCT015 OVC035
      TEMPO 2715/2718 2SM -SHRA BR BKN015 OVC040
     FM271800 22010G20KT 5SM -SHRA OVC022
     FM272100 23010KT 5SM -RA BR BKN015 OVC025
     FM280400 29010KT P6SM SCT015 BKN025=

USA.gov is the U.S. government's official web portal to all federal, state and local government web resources and services.